sensor_id;sensor_type;location;lat;lon;timestamp;pressure;altitude;pressure_sealevel;temperature;humidity
47530;BME280;33272;51.922;7.730;2022-09-13T00:01:05;100242.28;;;15.90;100.00
47530;BME280;33272;51.922;7.730;2022-09-13T00:03:32;100247.34;;;15.88;100.00
47530;BME280;33272;51.922;7.730;2022-09-13T00:06:08;100245.59;;;15.87;100.00
47530;BME280;33272;51.922;7.730;2022-09-13T00:08:35;100243.00;;;15.87;100.00
47530;BME280;33272;51.922;7.730;2022-09-13T00:11:02;100238.81;;;15.89;100.00
47530;BME280;33272;51.922;7.730;2022-09-13T00:13:29;100236.41;;;15.94;100.00
47530;BME280;33272;51.922;7.730;2022-09-13T00:15:57;100238.13;;;15.93;100.00
47530;BME280;33272;51.922;7.730;2022-09-13T00:18:27;100233.00;;;15.95;100.00
47530;BME280;33272;51.922;7.730;2022-09-13T00:21:04;100226.09;;;15.94;100.00
47530;BME280;33272;51.922;7.730;2022-09-13T00:23:31;100222.56;;;15.92;100.00
47530;BME280;33272;51.922;7.730;2022-09-13T00:26:07;100219.38;;;15.97;100.00
47530;BME280;33272;51.922;7.730;2022-09-13T00:28:34;100221.94;;;15.97;100.00
47530;BME280;33272;51.922;7.730;2022-09-13T00:31:03;100206.81;;;16.05;100.00
47530;BME280;33272;51.922;7.730;2022-09-13T00:33:32;100209.53;;;16.08;100.00
47530;BME280;33272;51.922;7.730;2022-09-13T00:36:03;100205.41;;;16.13;100.00
47530;BME280;33272;51.922;7.730;2022-09-13T00:38:31;100201.34;;;16.18;100.00
47530;BME280;33272;51.922;7.730;2022-09-13T00:40:58;100199.78;;;16.22;100.00
47530;BME280;33272;51.922;7.730;2022-09-13T00:43:43;100198.81;;;16.20;100.00
47530;BME280;33272;51.922;7.730;2022-09-13T00:46:16;100196.50;;;16.26;100.00
47530;BME280;33272;51.922;7.730;2022-09-13T00:48:52;100193.13;;;16.27;100.00
47530;BME280;33272;51.922;7.730;2022-09-13T00:51:21;100188.09;;;16.30;100.00
47530;BME280;33272;51.922;7.730;2022-09-13T00:53:51;100189.09;;;16.34;100.00
47530;BME280;33272;51.922;7.730;2022-09-13T00:56:27;100183.19;;;16.36;100.00
47530;BME280;33272;51.922;7.730;2022-09-13T00:58:59;100176.47;;;16.41;100.00
47530;BME280;33272;51.922;7.730;2022-09-13T01:01:32;100182.66;;;16.45;100.00
47530;BME280;33272;51.922;7.730;2022-09-13T01:04:02;100169.84;;;16.48;100.00
47530;BME280;33272;51.922;7.730;2022-09-13T01:06:33;100164.78;;;16.50;100.00
47530;BME280;33272;51.922;7.730;2022-09-13T01:09:01;100179.56;;;16.54;100.00
47530;BME280;33272;51.922;7.730;2022-09-13T01:11:38;100169.22;;;16.54;100.00
47530;BME280;33272;51.922;7.730;2022-09-13T01:14:08;100175.34;;;16.56;100.00
47530;BME280;33272;51.922;7.730;2022-09-13T01:16:35;100172.06;;;16.60;100.00
47530;BME280;33272;51.922;7.730;2022-09-13T01:19:04;100172.38;;;16.67;100.00
47530;BME280;33272;51.922;7.730;2022-09-13T01:22:26;100172.16;;;16.61;100.00
47530;BME280;33272;51.922;7.730;2022-09-13T01:25:25;100174.03;;;16.65;100.00
47530;BME280;33272;51.922;7.730;2022-09-13T01:28:22;100165.56;;;16.69;100.00
47530;BME280;33272;51.922;7.730;2022-09-13T01:30:58;100168.28;;;16.73;100.00
47530;BME280;33272;51.922;7.730;2022-09-13T01:33:42;100170.03;;;16.74;100.00
47530;BME280;33272;51.922;7.730;2022-09-13T01:36:35;100167.56;;;16.75;100.00
47530;BME280;33272;51.922;7.730;2022-09-13T01:39:12;100164.25;;;16.79;100.00
47530;BME280;33272;51.922;7.730;2022-09-13T01:42:05;100162.63;;;16.81;100.00
47530;BME280;33272;51.922;7.730;2022-09-13T01:44:51;100157.75;;;16.89;100.00
47530;BME280;33272;51.922;7.730;2022-09-13T01:47:26;100164.63;;;16.88;100.00
47530;BME280;33272;51.922;7.730;2022-09-13T01:50:10;100160.16;;;16.84;100.00
47530;BME280;33272;51.922;7.730;2022-09-13T01:52:44;100168.81;;;16.85;100.00
47530;BME280;33272;51.922;7.730;2022-09-13T01:55:25;100158.38;;;16.83;100.00
47530;BME280;33272;51.922;7.730;2022-09-13T01:58:04;100162.78;;;16.86;100.00
47530;BME280;33272;51.922;7.730;2022-09-13T02:00:38;100162.25;;;16.93;100.00
47530;BME280;33272;51.922;7.730;2022-09-13T02:03:13;100157.75;;;16.89;100.00
47530;BME280;33272;51.922;7.730;2022-09-13T02:05:49;100156.00;;;16.88;100.00
47530;BME280;33272;51.922;7.730;2022-09-13T02:08:21;100147.38;;;16.87;100.00
47530;BME280;33272;51.922;7.730;2022-09-13T02:10:55;100149.94;;;16.87;100.00
47530;BME280;33272;51.922;7.730;2022-09-13T02:13:32;100149.19;;;16.90;100.00
47530;BME280;33272;51.922;7.730;2022-09-13T02:16:07;100151.19;;;16.97;100.00
47530;BME280;33272;51.922;7.730;2022-09-13T02:18:40;100141.72;;;16.98;100.00
47530;BME280;33272;51.922;7.730;2022-09-13T02:21:11;100140.88;;;16.99;100.00
47530;BME280;33272;51.922;7.730;2022-09-13T02:23:46;100140.22;;;17.03;100.00
47530;BME280;33272;51.922;7.730;2022-09-13T02:26:16;100144.59;;;17.05;100.00
47530;BME280;33272;51.922;7.730;2022-09-13T02:28:50;100148.19;;;17.09;100.00
47530;BME280;33272;51.922;7.730;2022-09-13T02:31:25;100158.66;;;17.12;100.00
47530;BME280;33272;51.922;7.730;2022-09-13T02:33:57;100153.59;;;17.15;100.00
47530;BME280;33272;51.922;7.730;2022-09-13T02:36:30;100157.13;;;17.17;100.00
47530;BME280;33272;51.922;7.730;2022-09-13T02:39:02;100155.47;;;17.19;100.00
47530;BME280;33272;51.922;7.730;2022-09-13T02:41:35;100157.22;;;17.20;100.00
47530;BME280;33272;51.922;7.730;2022-09-13T02:44:10;100152.19;;;17.23;100.00
47530;BME280;33272;51.922;7.730;2022-09-13T02:46:58;100146.00;;;17.20;100.00
47530;BME280;33272;51.922;7.730;2022-09-13T02:49:37;100141.94;;;17.26;100.00
47530;BME280;33272;51.922;7.730;2022-09-13T02:52:10;100154.75;;;17.23;100.00
47530;BME280;33272;51.922;7.730;2022-09-13T02:54:48;100144.50;;;17.25;100.00
47530;BME280;33272;51.922;7.730;2022-09-13T02:57:21;100153.13;;;17.25;100.00
47530;BME280;33272;51.922;7.730;2022-09-13T02:59:52;100144.53;;;17.26;100.00
47530;BME280;33272;51.922;7.730;2022-09-13T03:02:22;100149.59;;;17.23;100.00
47530;BME280;33272;51.922;7.730;2022-09-13T03:04:54;100145.41;;;17.27;100.00
47530;BME280;33272;51.922;7.730;2022-09-13T03:07:22;100147.94;;;17.25;100.00
47530;BME280;33272;51.922;7.730;2022-09-13T03:09:52;100144.50;;;17.25;100.00
47530;BME280;33272;51.922;7.730;2022-09-13T03:15:46;100148.88;;;17.27;100.00
47530;BME280;33272;51.922;7.730;2022-09-13T03:18:32;100147.88;;;17.24;100.00
47530;BME280;33272;51.922;7.730;2022-09-13T03:21:16;100158.19;;;17.22;100.00
47530;BME280;33272;51.922;7.730;2022-09-13T03:23:58;100146.06;;;17.21;100.00
47530;BME280;33272;51.922;7.730;2022-09-13T03:26:48;100140.31;;;17.28;100.00
47530;BME280;33272;51.922;7.730;2022-09-13T03:29:31;100134.19;;;17.26;100.00
47530;BME280;33272;51.922;7.730;2022-09-13T03:32:18;100139.25;;;17.23;100.00
47530;BME280;33272;51.922;7.730;2022-09-13T03:34:52;100136.63;;;17.22;100.00
47530;BME280;33272;51.922;7.730;2022-09-13T03:37:30;100135.66;;;17.20;100.00
47530;BME280;33272;51.922;7.730;2022-09-13T03:40:02;100140.78;;;17.18;100.00
47530;BME280;33272;51.922;7.730;2022-09-13T03:42:34;100131.13;;;17.14;100.00
47530;BME280;33272;51.922;7.730;2022-09-13T03:45:07;100125.09;;;17.13;100.00
47530;BME280;33272;51.922;7.730;2022-09-13T03:47:36;100125.84;;;17.11;100.00
47530;BME280;33272;51.922;7.730;2022-09-13T03:50:07;100124.03;;;17.08;100.00
47530;BME280;33272;51.922;7.730;2022-09-13T03:52:37;100118.03;;;17.09;100.00
47530;BME280;33272;51.922;7.730;2022-09-13T03:55:04;100124.97;;;17.10;100.00
47530;BME280;33272;51.922;7.730;2022-09-13T03:57:31;100128.31;;;17.08;100.00
47530;BME280;33272;51.922;7.730;2022-09-13T03:59:59;100123.34;;;17.12;100.00
47530;BME280;33272;51.922;7.730;2022-09-13T04:02:26;100125.97;;;17.14;100.00
47530;BME280;33272;51.922;7.730;2022-09-13T04:04:53;100132.91;;;17.15;100.00
47530;BME280;33272;51.922;7.730;2022-09-13T04:07:23;100133.84;;;17.17;100.00
47530;BME280;33272;51.922;7.730;2022-09-13T04:09:51;100136.50;;;17.19;100.00
47530;BME280;33272;51.922;7.730;2022-09-13T04:12:18;100136.53;;;17.20;100.00
47530;BME280;33272;51.922;7.730;2022-09-13T04:14:45;100139.19;;;17.22;100.00
47530;BME280;33272;51.922;7.730;2022-09-13T04:17:13;100139.31;;;17.25;100.00
47530;BME280;33272;51.922;7.730;2022-09-13T04:19:40;100134.19;;;17.26;100.00
47530;BME280;33272;51.922;7.730;2022-09-13T04:22:09;100137.72;;;17.28;100.00
47530;BME280;33272;51.922;7.730;2022-09-13T04:24:36;100142.13;;;17.31;100.00
47530;BME280;33272;51.922;7.730;2022-09-13T04:27:05;100136.88;;;17.29;100.00
47530;BME280;33272;51.922;7.730;2022-09-13T04:29:32;100136.16;;;17.33;100.00
47530;BME280;33272;51.922;7.730;2022-09-13T04:31:59;100138.88;;;17.36;100.00
47530;BME280;33272;51.922;7.730;2022-09-13T04:34:26;100141.44;;;17.36;100.00
47530;BME280;33272;51.922;7.730;2022-09-13T04:36:53;100147.53;;;17.37;100.00
47530;BME280;33272;51.922;7.730;2022-09-13T04:39:21;100150.19;;;17.40;100.00
47530;BME280;33272;51.922;7.730;2022-09-13T04:41:49;100152.00;;;17.41;100.00
47530;BME280;33272;51.922;7.730;2022-09-13T04:44:18;100146.84;;;17.43;100.00
47530;BME280;33272;51.922;7.730;2022-09-13T04:46:46;100138.22;;;17.42;100.00
47530;BME280;33272;51.922;7.730;2022-09-13T04:49:14;100136.50;;;17.43;100.00
47530;BME280;33272;51.922;7.730;2022-09-13T04:51:42;100149.44;;;17.43;100.00
47530;BME280;33272;51.922;7.730;2022-09-13T04:54:09;100148.63;;;17.44;100.00
47530;BME280;33272;51.922;7.730;2022-09-13T04:56:37;100148.56;;;17.42;100.00
47530;BME280;33272;51.922;7.730;2022-09-13T04:59:04;100145.03;;;17.40;100.00
47530;BME280;33272;51.922;7.730;2022-09-13T05:01:33;100145.88;;;17.39;100.00
47530;BME280;33272;51.922;7.730;2022-09-13T05:03:59;100150.19;;;17.40;100.00
47530;BME280;33272;51.922;7.730;2022-09-13T05:06:26;100151.88;;;17.38;100.00
47530;BME280;33272;51.922;7.730;2022-09-13T05:08:55;100153.50;;;17.36;100.00
47530;BME280;33272;51.922;7.730;2022-09-13T05:11:24;100152.63;;;17.35;100.00
47530;BME280;33272;51.922;7.730;2022-09-13T05:13:53;100144.84;;;17.34;100.00
47530;BME280;33272;51.922;7.730;2022-09-13T05:16:22;100142.16;;;17.32;100.00
47530;BME280;33272;51.922;7.730;2022-09-13T05:18:51;100138.72;;;17.32;100.00
47530;BME280;33272;51.922;7.730;2022-09-13T05:21:20;100142.16;;;17.32;100.00
47530;BME280;33272;51.922;7.730;2022-09-13T05:23:48;100140.41;;;17.31;100.00
47530;BME280;33272;51.922;7.730;2022-09-13T05:26:17;100141.34;;;17.33;100.00
47530;BME280;33272;51.922;7.730;2022-09-13T05:28:44;100143.03;;;17.33;100.00
47530;BME280;33272;51.922;7.730;2022-09-13T05:31:15;100140.66;;;17.37;100.00
47530;BME280;33272;51.922;7.730;2022-09-13T05:33:43;100145.81;;;17.37;100.00
47530;BME280;33272;51.922;7.730;2022-09-13T05:36:12;100144.16;;;17.40;100.00
47530;BME280;33272;51.922;7.730;2022-09-13T05:38:39;100138.28;;;17.44;100.00
47530;BME280;33272;51.922;7.730;2022-09-13T05:41:06;100138.41;;;17.47;100.00
47530;BME280;33272;51.922;7.730;2022-09-13T05:43:35;100139.31;;;17.49;100.00
47530;BME280;33272;51.922;7.730;2022-09-13T05:46:04;100132.50;;;17.51;100.00
47530;BME280;33272;51.922;7.730;2022-09-13T05:48:34;100137.91;;;17.57;100.00
47530;BME280;33272;51.922;7.730;2022-09-13T05:51:06;100143.22;;;17.61;100.00
47530;BME280;33272;51.922;7.730;2022-09-13T05:53:37;100146.88;;;17.67;100.00
47530;BME280;33272;51.922;7.730;2022-09-13T05:56:07;100146.91;;;17.68;100.00
47530;BME280;33272;51.922;7.730;2022-09-13T05:58:37;100148.69;;;17.69;100.00
47530;BME280;33272;51.922;7.730;2022-09-13T06:01:05;100156.56;;;17.72;100.00
47530;BME280;33272;51.922;7.730;2022-09-13T06:03:32;100154.25;;;17.78;100.00
47530;BME280;33272;51.922;7.730;2022-09-13T06:05:59;100157.03;;;17.85;100.00
47530;BME280;33272;51.922;7.730;2022-09-13T06:08:29;100164.13;;;17.90;100.00
47530;BME280;33272;51.922;7.730;2022-09-13T06:10:59;100166.00;;;17.94;100.00
47530;BME280;33272;51.922;7.730;2022-09-13T06:13:27;100158.59;;;18.05;100.00
47530;BME280;33272;51.922;7.730;2022-09-13T06:15:57;100168.41;;;18.14;100.00
47530;BME280;33272;51.922;7.730;2022-09-13T06:18:25;100170.44;;;18.22;100.00
47530;BME280;33272;51.922;7.730;2022-09-13T06:20:57;100171.44;;;18.27;100.00
47530;BME280;33272;51.922;7.730;2022-09-13T06:23:25;100170.81;;;18.35;100.00
47530;BME280;33272;51.922;7.730;2022-09-13T06:26:02;100170.22;;;18.42;100.00
47530;BME280;33272;51.922;7.730;2022-09-13T06:28:29;100174.75;;;18.49;100.00
47530;BME280;33272;51.922;7.730;2022-09-13T06:31:01;100177.38;;;18.50;100.00
47530;BME280;33272;51.922;7.730;2022-09-13T06:33:28;100181.19;;;18.60;100.00
47530;BME280;33272;51.922;7.730;2022-09-13T06:35:59;100177.88;;;18.64;100.00
47530;BME280;33272;51.922;7.730;2022-09-13T06:38:27;100179.50;;;18.62;100.00
47530;BME280;33272;51.922;7.730;2022-09-13T06:41:03;100176.25;;;18.68;100.00
47530;BME280;33272;51.922;7.730;2022-09-13T06:43:31;100175.41;;;18.69;100.00
47530;BME280;33272;51.922;7.730;2022-09-13T06:46:02;100179.94;;;18.74;100.00
47530;BME280;33272;51.922;7.730;2022-09-13T06:48:31;100186.31;;;18.84;100.00
47530;BME280;33272;51.922;7.730;2022-09-13T06:51:01;100176.22;;;18.93;100.00
47530;BME280;33272;51.922;7.730;2022-09-13T06:53:31;100178.53;;;19.13;100.00
47530;BME280;33272;51.922;7.730;2022-09-13T06:56:03;100170.22;;;19.23;100.00
47530;BME280;33272;51.922;7.730;2022-09-13T06:58:31;100169.69;;;19.35;100.00
47530;BME280;33272;51.922;7.730;2022-09-13T07:01:10;100171.56;;;19.39;100.00
47530;BME280;33272;51.922;7.730;2022-09-13T07:03:40;100177.22;;;19.56;100.00
47530;BME280;33272;51.922;7.730;2022-09-13T07:06:10;100168.19;;;19.72;100.00
47530;BME280;33272;51.922;7.730;2022-09-13T07:08:38;100177.78;;;19.74;100.00
47530;BME280;33272;51.922;7.730;2022-09-13T07:11:07;100174.06;;;19.96;100.00
47530;BME280;33272;51.922;7.730;2022-09-13T07:13:35;100174.47;;;20.11;100.00
47530;BME280;33272;51.922;7.730;2022-09-13T07:16:04;100175.44;;;20.17;100.00
47530;BME280;33272;51.922;7.730;2022-09-13T07:18:31;100182.59;;;20.25;100.00
47530;BME280;33272;51.922;7.730;2022-09-13T07:21:00;100177.50;;;20.28;100.00
47530;BME280;33272;51.922;7.730;2022-09-13T07:23:29;100176.63;;;20.29;100.00
47530;BME280;33272;51.922;7.730;2022-09-13T07:25:57;100176.03;;;20.40;100.00
47530;BME280;33272;51.922;7.730;2022-09-13T07:28:33;100175.31;;;20.45;100.00
47530;BME280;33272;51.922;7.730;2022-09-13T07:31:08;100177.44;;;20.60;100.00
47530;BME280;33272;51.922;7.730;2022-09-13T07:33:36;100189.75;;;20.67;100.00
47530;BME280;33272;51.922;7.730;2022-09-13T07:36:04;100192.47;;;20.72;100.00
47530;BME280;33272;51.922;7.730;2022-09-13T07:38:33;100188.03;;;20.68;100.00
47530;BME280;33272;51.922;7.730;2022-09-13T07:41:01;100184.59;;;20.69;100.00
47530;BME280;33272;51.922;7.730;2022-09-13T07:43:31;100186.50;;;20.77;99.95
47530;BME280;33272;51.922;7.730;2022-09-13T07:46:00;100186.41;;;20.73;99.42
47530;BME280;33272;51.922;7.730;2022-09-13T07:48:29;100189.19;;;20.80;98.74
47530;BME280;33272;51.922;7.730;2022-09-13T07:50:59;100190.25;;;20.89;98.85
47530;BME280;33272;51.922;7.730;2022-09-13T07:53:26;100195.97;;;21.12;98.33
47530;BME280;33272;51.922;7.730;2022-09-13T07:55:54;100190.97;;;21.19;97.86
47530;BME280;33272;51.922;7.730;2022-09-13T07:58:25;100193.66;;;21.24;97.00
47530;BME280;33272;51.922;7.730;2022-09-13T08:00:53;100199.06;;;21.33;96.69
47530;BME280;33272;51.922;7.730;2022-09-13T08:03:20;100202.03;;;21.47;96.46
47530;BME280;33272;51.922;7.730;2022-09-13T08:05:47;100197.63;;;21.46;93.50
47530;BME280;33272;51.922;7.730;2022-09-13T08:08:14;100197.75;;;21.50;95.69
47530;BME280;33272;51.922;7.730;2022-09-13T08:10:41;100205.69;;;21.57;95.45
47530;BME280;33272;51.922;7.730;2022-09-13T08:13:08;100211.44;;;21.42;95.11
47530;BME280;33272;51.922;7.730;2022-09-13T08:15:35;100206.81;;;21.30;94.34
47530;BME280;33272;51.922;7.730;2022-09-13T08:18:04;100206.09;;;21.36;95.09
47530;BME280;33272;51.922;7.730;2022-09-13T08:20:35;100214.94;;;21.42;94.75
47530;BME280;33272;51.922;7.730;2022-09-13T08:23:03;100217.59;;;21.45;94.90
47530;BME280;33272;51.922;7.730;2022-09-13T08:25:31;100220.34;;;21.51;94.92
47530;BME280;33272;51.922;7.730;2022-09-13T08:27:59;100222.75;;;21.42;94.86
47530;BME280;33272;51.922;7.730;2022-09-13T08:30:26;100230.75;;;21.53;94.35
47530;BME280;33272;51.922;7.730;2022-09-13T08:32:58;100223.94;;;21.57;93.92
47530;BME280;33272;51.922;7.730;2022-09-13T08:35:27;100226.19;;;21.82;93.76
47530;BME280;33272;51.922;7.730;2022-09-13T08:37:55;100224.41;;;21.81;93.37
47530;BME280;33272;51.922;7.730;2022-09-13T08:40:26;100229.72;;;21.86;93.17
47530;BME280;33272;51.922;7.730;2022-09-13T08:43:01;100232.03;;;21.72;92.86
47530;BME280;33272;51.922;7.730;2022-09-13T08:45:32;100236.25;;;21.65;93.30
47530;BME280;33272;51.922;7.730;2022-09-13T08:48:04;100227.69;;;21.71;93.38
47530;BME280;33272;51.922;7.730;2022-09-13T08:50:38;100232.22;;;21.80;93.22
47530;BME280;33272;51.922;7.730;2022-09-13T08:53:17;100236.91;;;21.97;92.80
47530;BME280;33272;51.922;7.730;2022-09-13T08:55:53;100234.38;;;22.01;92.25
47530;BME280;33272;51.922;7.730;2022-09-13T08:58:50;100226.56;;;22.01;92.04
47530;BME280;33272;51.922;7.730;2022-09-13T09:01:37;100231.16;;;22.15;91.58
47530;BME280;33272;51.922;7.730;2022-09-13T09:04:14;100222.59;;;22.19;91.83
47530;BME280;33272;51.922;7.730;2022-09-13T09:06:47;100224.53;;;22.31;92.23
47530;BME280;33272;51.922;7.730;2022-09-13T09:09:17;100221.16;;;22.37;91.63
47530;BME280;33272;51.922;7.730;2022-09-13T09:11:50;100228.44;;;22.55;91.02
47530;BME280;33272;51.922;7.730;2022-09-13T09:14:25;100209.41;;;22.60;90.56
47530;BME280;33272;51.922;7.730;2022-09-13T09:16:58;100219.38;;;22.86;90.06
47530;BME280;33272;51.922;7.730;2022-09-13T09:19:33;100210.66;;;22.84;89.88
47530;BME280;33272;51.922;7.730;2022-09-13T09:22:10;100216.97;;;22.95;89.13
47530;BME280;33272;51.922;7.730;2022-09-13T09:24:40;100207.38;;;22.96;88.94
47530;BME280;33272;51.922;7.730;2022-09-13T09:27:15;100212.66;;;22.99;88.92
47530;BME280;33272;51.922;7.730;2022-09-13T09:29:43;100219.66;;;23.03;89.36
47530;BME280;33272;51.922;7.730;2022-09-13T09:32:32;100225.53;;;22.91;87.17
47530;BME280;33272;51.922;7.730;2022-09-13T09:35:13;100220.16;;;22.82;88.74
47530;BME280;33272;51.922;7.730;2022-09-13T09:37:55;100227.06;;;22.78;87.88
47530;BME280;33272;51.922;7.730;2022-09-13T09:40:27;100218.47;;;22.84;89.54
47530;BME280;33272;51.922;7.730;2022-09-13T09:42:54;100219.53;;;22.94;89.70
47530;BME280;33272;51.922;7.730;2022-09-13T09:45:25;100224.13;;;23.10;88.59
47530;BME280;33272;51.922;7.730;2022-09-13T09:47:55;100228.88;;;23.39;88.76
47530;BME280;33272;51.922;7.730;2022-09-13T09:50:29;100234.94;;;23.34;85.83
47530;BME280;33272;51.922;7.730;2022-09-13T09:53:04;100232.69;;;23.64;87.94
47530;BME280;33272;51.922;7.730;2022-09-13T09:55:41;100235.66;;;23.88;85.74
47530;BME280;33272;51.922;7.730;2022-09-13T09:58:12;100230.56;;;24.02;87.01
47530;BME280;33272;51.922;7.730;2022-09-13T10:00:51;100226.44;;;24.24;84.27
47530;BME280;33272;51.922;7.730;2022-09-13T10:03:23;100233.53;;;24.34;86.11
47530;BME280;33272;51.922;7.730;2022-09-13T10:06:04;100236.25;;;24.42;85.96
47530;BME280;33272;51.922;7.730;2022-09-13T10:08:36;100236.38;;;24.54;86.37
47530;BME280;33272;51.922;7.730;2022-09-13T10:11:05;100239.91;;;24.59;86.40
47530;BME280;33272;51.922;7.730;2022-09-13T10:13:33;100234.59;;;24.50;86.76
47530;BME280;33272;51.922;7.730;2022-09-13T10:16:03;100229.13;;;24.28;86.50
47530;BME280;33272;51.922;7.730;2022-09-13T10:18:31;100224.59;;;24.14;86.71
47530;BME280;33272;51.922;7.730;2022-09-13T10:21:03;100221.22;;;24.22;86.89
47530;BME280;33272;51.922;7.730;2022-09-13T10:23:31;100220.34;;;24.23;87.40
47530;BME280;33272;51.922;7.730;2022-09-13T10:26:07;100221.31;;;24.32;86.68
47530;BME280;33272;51.922;7.730;2022-09-13T10:28:43;100215.41;;;24.51;86.61
47530;BME280;33272;51.922;7.730;2022-09-13T10:31:14;100217.13;;;24.47;86.61
47530;BME280;33272;51.922;7.730;2022-09-13T10:33:53;100224.16;;;24.55;86.29
47530;BME280;33272;51.922;7.730;2022-09-13T10:36:25;100211.91;;;24.52;86.37
47530;BME280;33272;51.922;7.730;2022-09-13T10:38:58;100223.38;;;24.65;86.47
47530;BME280;33272;51.922;7.730;2022-09-13T10:41:30;100219.03;;;24.68;85.98
47530;BME280;33272;51.922;7.730;2022-09-13T10:44:00;100225.13;;;24.67;86.03
47530;BME280;33272;51.922;7.730;2022-09-13T10:46:31;100225.09;;;24.60;86.82
47530;BME280;33272;51.922;7.730;2022-09-13T10:48:59;100222.41;;;24.54;86.96
47530;BME280;33272;51.922;7.730;2022-09-13T10:51:35;100228.59;;;24.63;86.20
47530;BME280;33272;51.922;7.730;2022-09-13T10:54:11;100220.81;;;24.74;85.71
47530;BME280;33272;51.922;7.730;2022-09-13T10:56:44;100221.63;;;24.62;86.05
47530;BME280;33272;51.922;7.730;2022-09-13T10:59:29;100221.63;;;24.62;85.35
47530;BME280;33272;51.922;7.730;2022-09-13T11:02:13;100222.47;;;24.61;84.97
47530;BME280;33272;51.922;7.730;2022-09-13T11:05:08;100219.81;;;24.57;86.08
47530;BME280;33272;51.922;7.730;2022-09-13T11:08:12;100216.09;;;24.35;86.51
47530;BME280;33272;51.922;7.730;2022-09-13T11:10:56;100208.22;;;24.33;87.33
47530;BME280;33272;51.922;7.730;2022-09-13T11:13:41;100214.31;;;24.32;86.93
47530;BME280;33272;51.922;7.730;2022-09-13T11:16:27;100206.53;;;24.38;85.68
47530;BME280;33272;51.922;7.730;2022-09-13T11:19:27;100208.41;;;24.48;86.37
47530;BME280;33272;51.922;7.730;2022-09-13T11:22:19;100208.34;;;24.42;84.61
47530;BME280;33272;51.922;7.730;2022-09-13T11:25:16;100211.84;;;24.43;84.97
47530;BME280;33272;51.922;7.730;2022-09-13T11:27:56;100206.59;;;24.41;85.25
47530;BME280;33272;51.922;7.730;2022-09-13T11:30:30;100202.22;;;24.40;86.30
47530;BME280;33272;51.922;7.730;2022-09-13T11:33:16;100214.13;;;24.14;85.41
47530;BME280;33272;51.922;7.730;2022-09-13T11:36:03;100206.22;;;24.08;86.37
47530;BME280;33272;51.922;7.730;2022-09-13T11:38:47;100195.63;;;23.95;86.51
47530;BME280;33272;51.922;7.730;2022-09-13T11:41:25;100198.06;;;23.78;87.24
47530;BME280;33272;51.922;7.730;2022-09-13T11:44:27;100196.34;;;23.77;87.41
47530;BME280;33272;51.922;7.730;2022-09-13T11:47:07;100193.06;;;23.97;87.87
47530;BME280;33272;51.922;7.730;2022-09-13T11:50:24;100198.47;;;24.15;86.19
47530;BME280;33272;51.922;7.730;2022-09-13T11:53:05;100196.75;;;24.17;85.45
47530;BME280;33272;51.922;7.730;2022-09-13T11:55:40;100195.97;;;24.31;86.97
47530;BME280;33272;51.922;7.730;2022-09-13T11:58:13;100186.38;;;24.26;87.25
47530;BME280;33272;51.922;7.730;2022-09-13T12:00:47;100188.19;;;24.37;87.21
47530;BME280;33272;51.922;7.730;2022-09-13T12:03:24;100189.91;;;24.32;85.97
47530;BME280;33272;51.922;7.730;2022-09-13T12:06:00;100189.84;;;24.27;86.81
47530;BME280;33272;51.922;7.730;2022-09-13T12:08:34;100189.66;;;24.07;87.03
47530;BME280;33272;51.922;7.730;2022-09-13T12:11:14;100187.00;;;23.99;87.65
47530;BME280;33272;51.922;7.730;2022-09-13T12:13:48;100187.88;;;24.00;87.69
47530;BME280;33272;51.922;7.730;2022-09-13T12:16:21;100184.28;;;23.92;88.05
47530;BME280;33272;51.922;7.730;2022-09-13T12:18:54;100175.59;;;23.96;88.11
47530;BME280;33272;51.922;7.730;2022-09-13T12:21:26;100172.28;;;24.09;87.78
47530;BME280;33272;51.922;7.730;2022-09-13T12:24:01;100173.19;;;24.16;87.31
47530;BME280;33272;51.922;7.730;2022-09-13T12:26:34;100174.06;;;24.18;87.28
47530;BME280;33272;51.922;7.730;2022-09-13T12:29:12;100173.97;;;24.07;87.86
47530;BME280;33272;51.922;7.730;2022-09-13T12:31:40;100166.25;;;24.19;87.77
47530;BME280;33272;51.922;7.730;2022-09-13T12:34:15;100175.94;;;24.29;87.36
47530;BME280;33272;51.922;7.730;2022-09-13T12:37:15;100174.19;;;24.30;85.43
47530;BME280;33272;51.922;7.730;2022-09-13T12:40:06;100168.97;;;24.28;86.80
47530;BME280;33272;51.922;7.730;2022-09-13T12:43:21;100166.44;;;24.39;86.15
47530;BME280;33272;51.922;7.730;2022-09-13T12:46:18;100149.91;;;24.42;84.83
47530;BME280;33272;51.922;7.730;2022-09-13T12:49:29;100160.56;;;24.63;86.31
47530;BME280;33272;51.922;7.730;2022-09-13T12:52:21;100165.09;;;24.89;84.51
47530;BME280;33272;51.922;7.730;2022-09-13T12:55:18;100156.56;;;25.13;83.13
47530;BME280;33272;51.922;7.730;2022-09-13T12:57:56;100160.16;;;25.39;82.92
47530;BME280;33272;51.922;7.730;2022-09-13T13:00:28;100159.38;;;25.57;82.16
47530;BME280;33272;51.922;7.730;2022-09-13T13:03:12;100164.66;;;25.77;82.13
47530;BME280;33272;51.922;7.730;2022-09-13T13:05:45;100165.66;;;26.08;81.48
47530;BME280;33272;51.922;7.730;2022-09-13T13:08:27;100163.00;;;26.04;80.51
47530;BME280;33272;51.922;7.730;2022-09-13T13:11:02;100159.47;;;25.91;78.06
47530;BME280;33272;51.922;7.730;2022-09-13T13:13:36;100152.44;;;25.78;79.78
47530;BME280;33272;51.922;7.730;2022-09-13T13:16:21;100151.56;;;25.77;79.60
47530;BME280;33272;51.922;7.730;2022-09-13T13:18:51;100147.22;;;25.81;80.25
47530;BME280;33272;51.922;7.730;2022-09-13T13:21:36;100155.00;;;25.59;79.43
47530;BME280;33272;51.922;7.730;2022-09-13T13:24:46;100156.69;;;25.42;78.85